createdAt,value
2019-06-08T00:01:05.507Z,16.40
2019-06-08T00:03:37.187Z,16.77
2019-06-08T00:06:09.129Z,15.73
2019-06-08T00:08:41.276Z,16.60
2019-06-08T00:11:14.980Z,16.27
2019-06-08T00:13:47.071Z,15.97
2019-06-08T00:16:19.379Z,17.87
2019-06-08T00:18:51.155Z,17.07
2019-06-08T00:21:24.081Z,17.43
2019-06-08T00:23:56.162Z,16.77
2019-06-08T00:26:28.886Z,17.87
2019-06-08T00:29:00.671Z,18.07
2019-06-08T00:31:32.416Z,16.67
2019-06-08T00:34:04.208Z,17.03
2019-06-08T00:36:35.916Z,17.30
2019-06-08T00:39:09.891Z,16.60
2019-06-08T00:41:41.545Z,16.80
2019-06-08T00:44:13.296Z,16.93
2019-06-08T00:46:45.232Z,17.70
2019-06-08T00:49:18.284Z,17.70
2019-06-08T00:51:50.166Z,17.63
2019-06-08T00:54:23.438Z,16.70
2019-06-08T00:56:55.557Z,16.50
2019-06-08T00:59:27.244Z,18.00
2019-06-08T01:01:58.987Z,18.20
2019-06-08T01:04:30.771Z,18.50
2019-06-08T01:07:02.812Z,17.93
2019-06-08T01:09:34.683Z,18.83
2019-06-08T01:12:06.835Z,18.43
2019-06-08T01:14:38.716Z,18.07
2019-06-08T01:17:10.816Z,17.93
2019-06-08T01:19:42.817Z,17.70
2019-06-08T01:22:14.564Z,17.93
2019-06-08T01:24:46.322Z,17.20
2019-06-08T01:27:18.233Z,17.70
2019-06-08T01:29:49.912Z,16.97
2019-06-08T01:32:22.279Z,18.73
2019-06-08T01:34:54.401Z,17.57
2019-06-08T01:37:27.004Z,18.00
2019-06-08T01:39:58.825Z,18.97
2019-06-08T01:42:31.799Z,18.00
2019-06-08T01:45:05.560Z,18.57
2019-06-08T01:47:37.685Z,17.27
2019-06-08T01:50:09.924Z,18.40
2019-06-08T01:52:41.879Z,16.17
2019-06-08T01:55:13.929Z,17.47
2019-06-08T01:57:45.677Z,17.97
2019-06-08T02:00:29.823Z,17.63
2019-06-08T02:02:51.887Z,17.83
2019-06-08T02:05:24.132Z,17.47
2019-06-08T02:07:55.781Z,18.60
2019-06-08T02:10:28.704Z,19.90
2019-06-08T02:13:00.897Z,17.50
2019-06-08T02:15:33.853Z,20.53
2019-06-08T02:18:05.599Z,21.40
2019-06-08T02:20:37.385Z,19.53
2019-06-08T02:23:09.622Z,20.57
2019-06-08T02:25:43.052Z,19.87
2019-06-08T02:28:15.433Z,22.37
2019-06-08T02:30:50.075Z,22.53
2019-06-08T02:33:22.277Z,22.50
2019-06-08T02:35:54.513Z,19.77
2019-06-08T02:38:29.789Z,21.17
2019-06-08T02:41:02.501Z,21.83
2019-06-08T02:43:35.823Z,21.13
2019-06-08T02:46:08.835Z,21.33
2019-06-08T02:49:00.472Z,23.27
2019-06-08T02:51:15.236Z,22.43
2019-06-08T02:53:58.719Z,22.07
2019-06-08T02:56:34.191Z,22.93
2019-06-08T02:59:09.053Z,24.60
2019-06-08T03:01:43.862Z,23.73
2019-06-08T03:04:19.691Z,22.63
2019-06-08T03:06:54.464Z,22.67
2019-06-08T03:09:30.346Z,23.57
2019-06-08T03:12:04.720Z,23.20
2019-06-08T03:14:37.667Z,24.37
2019-06-08T03:17:11.027Z,24.23
2019-06-08T03:19:44.167Z,22.13
2019-06-08T03:22:17.587Z,24.20
2019-06-08T03:24:49.973Z,21.83
2019-06-08T03:27:24.504Z,24.43
2019-06-08T03:29:56.915Z,24.70
2019-06-08T03:32:29.862Z,24.23
2019-06-08T03:35:02.864Z,25.07
2019-06-08T03:37:37.816Z,23.93
2019-06-08T03:40:12.286Z,25.20
2019-06-08T03:42:45.851Z,26.70
2019-06-08T03:45:18.846Z,26.90
2019-06-08T03:47:51.756Z,23.60
2019-06-08T03:50:23.518Z,24.87
2019-06-08T03:52:55.273Z,24.03
2019-06-08T03:55:35.665Z,24.63
2019-06-08T03:58:06.342Z,25.37
2019-06-08T04:00:40.451Z,24.77
2019-06-08T04:03:13.069Z,25.20
2019-06-08T04:05:46.434Z,27.83
2019-06-08T04:08:20.590Z,28.43
2019-06-08T04:10:52.324Z,28.70
2019-06-08T04:13:24.081Z,28.90
2019-06-08T04:15:55.852Z,30.00
2019-06-08T04:18:27.617Z,32.23
2019-06-08T04:20:59.369Z,30.60
2019-06-08T04:23:31.140Z,30.70
2019-06-08T04:26:02.894Z,29.23
2019-06-08T04:28:34.645Z,31.33
2019-06-08T04:31:07.330Z,28.27
2019-06-08T04:33:40.280Z,29.13
2019-06-08T04:36:13.918Z,30.00
2019-06-08T04:38:47.971Z,30.77
2019-06-08T04:41:20.275Z,31.37
2019-06-08T04:43:53.208Z,31.07
2019-06-08T04:46:24.973Z,30.73
2019-06-08T04:48:57.966Z,30.40
2019-06-08T04:51:29.999Z,30.80
2019-06-08T04:54:01.760Z,31.30
2019-06-08T04:56:33.536Z,30.83
2019-06-08T04:59:05.671Z,31.90
2019-06-08T05:01:38.815Z,30.93
2019-06-08T05:04:12.186Z,30.63
2019-06-08T05:06:45.192Z,33.20
2019-06-08T05:09:18.452Z,31.80
2019-06-08T08:11:45.455Z,20.00
2019-06-08T08:14:21.424Z,20.47
2019-06-08T08:16:55.023Z,19.17
2019-06-08T08:19:26.745Z,18.50
2019-06-08T08:22:02.333Z,16.67
2019-06-08T08:24:32.036Z,16.77
2019-06-08T08:27:03.994Z,16.77
2019-06-08T08:29:38.238Z,15.00
2019-06-08T08:32:10.281Z,14.73
2019-06-08T08:34:42.645Z,12.33
2019-06-08T08:37:14.399Z,11.00
2019-06-08T08:39:50.116Z,10.60
2019-06-08T08:42:22.291Z,9.10
2019-06-08T08:44:58.643Z,9.43
2019-06-08T08:47:30.837Z,7.37
2019-06-08T08:50:07.298Z,6.10
2019-06-08T08:52:43.232Z,5.57
2019-06-08T08:55:34.744Z,5.13
2019-06-08T08:58:18.749Z,3.87
2019-06-08T09:00:55.337Z,4.60
2019-06-08T09:03:33.523Z,3.50
2019-06-08T09:06:08.723Z,3.60
2019-06-08T09:08:40.791Z,3.20
2019-06-08T09:11:17.678Z,3.83
2019-06-08T09:13:53.588Z,2.60
2019-06-08T09:16:25.502Z,2.20
2019-06-08T09:19:01.045Z,2.27
2019-06-08T09:21:30.614Z,3.00
2019-06-08T09:24:04.026Z,2.50
2019-06-08T09:26:38.067Z,2.30
2019-06-08T09:29:11.310Z,3.13
2019-06-08T09:31:49.051Z,2.90
2019-06-08T09:34:21.112Z,4.57
2019-06-08T09:36:59.715Z,2.17
2019-06-08T09:39:29.213Z,3.40
2019-06-08T09:42:03.015Z,2.13
2019-06-08T09:44:34.319Z,2.23
2019-06-08T09:47:12.128Z,7.87
2019-06-08T09:49:41.642Z,10.63
2019-06-08T09:52:13.331Z,3.30
2019-06-08T09:54:44.980Z,2.23
2019-06-08T09:57:18.910Z,2.93
2019-06-08T09:59:54.726Z,2.10
2019-06-08T10:02:28.169Z,2.10
2019-06-08T10:05:04.000Z,1.20
2019-06-08T10:07:38.831Z,1.30
2019-06-08T10:10:11.367Z,1.87
2019-06-08T10:12:48.979Z,1.07
2019-06-08T10:15:22.291Z,1.00
2019-06-08T10:17:56.881Z,1.80
2019-06-08T10:20:30.845Z,1.00
2019-06-08T10:23:05.585Z,0.93
2019-06-08T10:25:38.515Z,1.03
2019-06-08T10:28:15.895Z,1.07
2019-06-08T10:30:50.119Z,1.03
2019-06-08T10:33:24.424Z,1.10
2019-06-08T10:35:59.108Z,1.57
2019-06-08T10:38:29.914Z,0.60
2019-06-08T10:41:11.941Z,0.87
2019-06-08T10:43:38.687Z,0.80
2019-06-08T10:46:16.547Z,1.10
2019-06-08T10:48:44.313Z,1.27
2019-06-08T10:51:19.520Z,1.00
2019-06-08T10:53:53.831Z,1.10
2019-06-08T10:56:28.355Z,0.93
2019-06-08T10:59:01.723Z,1.70
2019-06-08T11:01:32.601Z,1.30
2019-06-08T11:04:05.415Z,1.50
2019-06-08T11:06:39.875Z,1.10
2019-06-08T11:09:13.177Z,1.30
2019-06-08T11:11:44.499Z,1.80
2019-06-08T11:14:18.364Z,1.20
2019-06-08T11:16:49.672Z,1.20
2019-06-08T11:19:26.772Z,1.47
2019-06-08T11:22:06.163Z,1.33
2019-06-08T11:24:38.741Z,1.93
2019-06-08T11:27:12.907Z,2.13
2019-06-08T11:29:44.489Z,3.50
2019-06-08T11:32:18.380Z,2.00
2019-06-08T11:34:50.588Z,0.83
2019-06-08T11:37:22.423Z,0.90
2019-06-08T11:39:54.347Z,1.90
2019-06-08T11:42:28.471Z,2.90
2019-06-08T11:45:00.340Z,0.90
2019-06-08T11:47:32.331Z,1.40
2019-06-08T11:50:12.554Z,0.97
2019-06-08T11:52:41.645Z,1.20
2019-06-08T11:55:14.807Z,2.97
2019-06-08T11:57:48.780Z,0.80
2019-06-08T12:06:44.388Z,1.53
2019-06-08T12:09:18.499Z,1.20
2019-06-08T12:11:50.027Z,1.10
2019-06-08T12:14:33.527Z,0.97
2019-06-08T12:17:05.114Z,1.03
2019-06-08T12:19:37.754Z,1.20
2019-06-08T12:22:13.042Z,1.80
2019-06-08T12:24:45.407Z,1.20
2019-06-08T12:27:29.171Z,1.20
2019-06-08T12:29:51.941Z,1.63
2019-06-08T12:32:23.482Z,1.47
2019-06-08T12:34:55.232Z,1.40
2019-06-08T12:37:27.535Z,2.23
2019-06-08T12:40:01.320Z,1.47
2019-06-08T12:42:34.679Z,1.90
2019-06-08T12:45:09.234Z,1.63
2019-06-08T12:47:41.080Z,1.40
2019-06-08T12:50:15.465Z,1.10
2019-06-08T12:52:48.925Z,1.47
2019-06-08T12:55:24.865Z,1.30
2019-06-08T12:57:55.074Z,1.03
2019-06-08T13:00:28.582Z,1.03
2019-06-08T13:03:02.021Z,1.00
2019-06-08T13:05:37.981Z,0.93
2019-06-08T13:08:10.558Z,5.30
2019-06-08T13:10:47.944Z,1.93
2019-06-08T13:13:24.021Z,1.00
2019-06-08T13:15:52.559Z,1.40
2019-06-08T13:18:24.303Z,1.30
2019-06-08T13:21:00.422Z,1.13
2019-06-08T13:23:32.268Z,1.40
2019-06-08T13:26:05.923Z,2.10
2019-06-08T13:28:38.860Z,4.77
2019-06-08T13:31:14.008Z,2.37
2019-06-08T13:33:44.125Z,1.80
2019-06-08T13:36:22.025Z,1.80
2019-06-08T13:38:50.099Z,0.90
2019-06-08T13:41:26.261Z,1.07
2019-06-08T13:43:58.277Z,0.97
2019-06-08T13:46:30.341Z,1.00
2019-06-08T13:49:08.149Z,1.50
2019-06-08T13:51:39.539Z,1.57
2019-06-08T13:54:12.716Z,1.30
2019-06-08T13:56:45.428Z,1.00
2019-06-08T13:59:22.734Z,1.13
2019-06-08T14:01:50.929Z,1.10
2019-06-08T14:04:23.805Z,1.90
2019-06-08T14:06:58.125Z,1.73
2019-06-08T14:09:31.494Z,2.27
2019-06-08T14:12:04.846Z,1.37
2019-06-08T14:14:39.706Z,2.03
2019-06-08T14:17:10.075Z,1.80
2019-06-08T14:19:41.815Z,1.30
2019-06-08T14:22:13.603Z,1.43
2019-06-08T14:24:47.781Z,3.77
2019-06-08T14:27:19.363Z,2.40
2019-06-08T14:29:51.646Z,2.03
2019-06-08T14:32:23.893Z,2.60
2019-06-08T14:34:58.209Z,2.20
2019-06-08T14:37:30.566Z,2.53
2019-06-08T14:40:02.335Z,2.03
2019-06-08T14:42:35.342Z,2.40
2019-06-08T14:45:10.971Z,1.30
2019-06-08T14:47:42.499Z,1.90
2019-06-08T14:50:15.110Z,2.23
2019-06-08T14:52:47.923Z,2.90
2019-06-08T14:55:22.254Z,1.10
2019-06-08T14:57:55.210Z,1.60
2019-06-08T15:00:27.697Z,1.73
2019-06-08T15:03:00.124Z,1.70
2019-06-08T15:05:34.552Z,1.10
2019-06-08T15:08:08.287Z,1.50
2019-06-08T15:10:42.502Z,1.33
2019-06-08T15:13:18.911Z,1.00
2019-06-08T15:15:52.341Z,1.00
2019-06-08T15:18:24.196Z,0.80
2019-06-08T15:20:58.097Z,1.33
2019-06-08T15:23:32.589Z,1.17
2019-06-08T15:26:03.665Z,2.60
2019-06-08T15:28:38.300Z,1.63
2019-06-08T15:31:10.035Z,1.50
2019-06-08T15:33:41.764Z,1.60
2019-06-08T15:36:13.776Z,1.40
2019-06-08T15:38:47.849Z,1.00
2019-06-08T15:41:21.356Z,1.40
2019-06-08T15:43:53.826Z,1.10
2019-06-08T15:46:28.227Z,2.20
2019-06-08T15:49:00.475Z,1.20
2019-06-08T15:51:37.264Z,3.10
2019-06-08T15:54:08.102Z,2.20
2019-06-08T15:56:48.674Z,2.83
2019-06-08T15:59:13.236Z,3.03
2019-06-08T16:01:46.275Z,1.40
2019-06-08T16:04:18.021Z,1.20
2019-06-08T16:06:49.846Z,2.67
2019-06-08T16:09:29.984Z,5.23
2019-06-08T16:12:03.124Z,1.27
2019-06-08T16:14:35.038Z,1.50
2019-06-08T16:17:08.145Z,4.17
2019-06-08T16:19:40.148Z,5.20
2019-06-08T16:22:15.462Z,10.07
2019-06-08T16:24:47.731Z,12.20
2019-06-08T16:27:19.490Z,7.60
2019-06-08T16:29:51.267Z,2.73
2019-06-08T16:32:23.008Z,6.90
2019-06-08T16:34:54.749Z,4.20
2019-06-08T16:37:27.483Z,4.13
2019-06-08T16:39:59.549Z,4.10
2019-06-08T16:42:33.087Z,2.40
2019-06-08T16:45:07.845Z,3.23
2019-06-08T16:47:46.602Z,3.40
2019-06-08T16:50:24.472Z,2.43
2019-06-08T16:52:53.719Z,7.63
2019-06-08T16:55:25.374Z,1.67
2019-06-08T16:57:57.216Z,2.33
2019-06-08T17:00:31.193Z,2.27
2019-06-08T17:03:02.874Z,1.90
2019-06-08T17:05:35.796Z,3.10
2019-06-08T17:08:07.521Z,1.90
2019-06-08T17:10:39.366Z,2.00
2019-06-08T17:13:12.734Z,1.50
2019-06-08T17:15:45.184Z,2.20
2019-06-08T17:18:18.222Z,2.07
2019-06-08T17:20:50.211Z,2.20
2019-06-08T17:23:22.016Z,1.90
2019-06-08T17:25:53.863Z,1.60
2019-06-08T17:28:25.599Z,1.83
2019-06-08T17:30:58.055Z,4.00
2019-06-08T17:33:31.027Z,1.83
2019-06-08T17:36:04.051Z,3.47
2019-06-08T17:38:35.734Z,2.60
2019-06-08T17:41:07.494Z,1.93
2019-06-08T17:43:40.298Z,1.23
2019-06-08T17:46:12.574Z,3.10
2019-06-08T17:48:44.245Z,3.77
2019-06-08T17:51:16.086Z,2.07
2019-06-08T17:53:47.834Z,1.40
2019-06-08T17:56:19.571Z,2.27
2019-06-08T17:58:51.386Z,2.67
2019-06-08T18:01:23.723Z,1.47
2019-06-08T18:03:57.337Z,2.20
2019-06-08T18:06:29.033Z,2.70
2019-06-08T18:09:02.048Z,2.50
2019-06-08T18:11:38.674Z,2.50
2019-06-08T18:14:08.812Z,2.50
2019-06-08T18:16:43.709Z,4.07
2019-06-08T18:19:25.009Z,4.60
2019-06-08T18:22:04.124Z,3.17
2019-06-08T18:24:31.719Z,3.27
2019-06-08T18:27:03.609Z,3.33
2019-06-08T18:29:38.870Z,3.40
2019-06-08T18:32:11.254Z,2.53
2019-06-08T18:34:44.925Z,1.93
2019-06-08T18:37:20.446Z,2.50
2019-06-08T18:39:52.396Z,3.40
2019-06-08T18:42:24.396Z,3.10
2019-06-08T18:44:58.244Z,3.50
2019-06-08T18:47:30.432Z,2.83
2019-06-08T18:50:02.217Z,3.00
2019-06-08T18:52:35.331Z,4.10
2019-06-08T18:55:09.326Z,3.50
2019-06-08T18:57:42.761Z,3.93
2019-06-08T19:00:15.889Z,3.90
2019-06-08T19:02:50.015Z,3.57
2019-06-08T19:05:21.552Z,4.30
2019-06-08T19:07:53.465Z,4.43
2019-06-08T19:10:34.283Z,3.53
2019-06-08T19:13:07.788Z,4.07
2019-06-08T19:15:43.920Z,3.50
2019-06-08T19:18:14.180Z,3.30
2019-06-08T19:20:48.979Z,3.70
2019-06-08T19:23:22.313Z,3.20
2019-06-08T19:25:54.117Z,3.53
2019-06-08T19:28:35.595Z,3.60
2019-06-08T19:30:59.404Z,6.90
2019-06-08T19:33:31.452Z,49.27
2019-06-08T19:36:03.204Z,32.27
2019-06-08T19:38:34.987Z,27.47
2019-06-08T19:41:08.155Z,25.67
2019-06-08T19:43:43.287Z,19.40
2019-06-08T19:46:14.099Z,20.47
2019-06-08T19:48:53.299Z,25.50
2019-06-08T19:51:19.709Z,25.80
2019-06-08T19:53:54.894Z,18.27
2019-06-08T19:56:25.113Z,9.70
2019-06-08T19:59:04.503Z,8.23
2019-06-08T20:01:37.810Z,9.40
2019-06-08T20:04:12.724Z,24.43
2019-06-08T20:06:48.062Z,56.23
2019-06-08T20:09:21.076Z,44.97
2019-06-08T20:11:59.364Z,26.27
2019-06-08T20:14:28.867Z,30.00
2019-06-08T20:17:00.614Z,20.03
2019-06-08T20:19:32.380Z,15.43
2019-06-08T20:22:07.517Z,19.60
2019-06-08T20:24:38.701Z,21.97
2019-06-08T20:27:11.715Z,17.50
2019-06-08T20:29:43.747Z,14.87
2019-06-08T20:32:18.052Z,14.20
2019-06-08T20:34:50.782Z,12.50
2019-06-08T20:37:22.762Z,10.43
2019-06-08T20:40:09.807Z,11.00
2019-06-08T20:42:31.934Z,10.77
2019-06-08T20:45:08.386Z,11.20
2019-06-08T20:47:40.280Z,11.10
2019-06-08T20:50:12.524Z,11.20
2019-06-08T20:52:47.222Z,11.90
2019-06-08T20:55:19.429Z,16.07
2019-06-08T20:57:53.737Z,15.60
2019-06-08T21:00:26.180Z,15.50
2019-06-08T21:03:02.849Z,16.13
2019-06-08T21:05:33.621Z,14.23
2019-06-08T21:08:08.185Z,12.80
2019-06-08T21:10:42.565Z,13.73
2019-06-08T21:13:17.939Z,17.20
2019-06-08T21:15:53.830Z,12.60
2019-06-08T21:18:24.702Z,9.73
2019-06-08T21:20:58.147Z,8.17
2019-06-08T21:23:32.211Z,15.43
2019-06-08T21:26:07.974Z,13.43
2019-06-08T21:28:39.175Z,12.13
2019-06-08T21:31:10.831Z,13.00
2019-06-08T21:33:42.588Z,14.23
2019-06-08T21:36:14.342Z,15.30
2019-06-08T21:38:49.845Z,15.40
2019-06-08T21:41:23.352Z,15.03
2019-06-08T21:44:02.269Z,14.33
2019-06-08T21:46:34.882Z,14.20
2019-06-08T21:49:08.081Z,17.30
2019-06-08T21:51:41.322Z,19.33
2019-06-08T21:54:13.226Z,23.23
2019-06-08T21:56:44.974Z,15.20
2019-06-08T21:59:20.960Z,15.03
2019-06-08T22:01:53.470Z,14.33
2019-06-08T22:04:27.683Z,13.80
2019-06-08T22:07:03.196Z,12.80
2019-06-08T22:09:47.941Z,12.70
2019-06-08T22:12:18.342Z,13.23
2019-06-08T22:14:51.381Z,13.03
2019-06-08T22:17:27.792Z,11.90
2019-06-08T22:20:01.066Z,11.60
2019-06-08T22:22:33.299Z,12.33
2019-06-08T22:25:08.163Z,11.30
2019-06-08T22:27:39.529Z,13.67
2019-06-08T22:30:22.870Z,9.37
2019-06-08T22:32:47.592Z,10.33
2019-06-08T22:35:19.739Z,9.60
2019-06-08T22:37:51.829Z,7.57
2019-06-08T22:40:25.112Z,6.90
2019-06-08T22:42:57.731Z,7.57
2019-06-08T22:45:30.417Z,7.17
2019-06-08T22:48:03.698Z,7.17
2019-06-08T22:50:35.489Z,7.17
2019-06-08T22:53:09.352Z,11.07
2019-06-08T22:55:41.196Z,19.87
2019-06-08T22:58:27.656Z,14.37
2019-06-08T23:01:02.523Z,7.90
2019-06-08T23:03:33.586Z,7.40
2019-06-08T23:06:08.777Z,7.60
2019-06-08T23:08:39.333Z,6.60
2019-06-08T23:11:11.059Z,6.13
2019-06-08T23:13:42.792Z,6.50
2019-06-08T23:16:14.537Z,6.67
2019-06-08T23:18:47.824Z,7.10
2019-06-08T23:21:19.971Z,6.57
2019-06-08T23:23:51.708Z,7.77
2019-06-08T23:26:23.448Z,7.90
2019-06-08T23:28:56.077Z,9.47
2019-06-08T23:31:29.056Z,8.73
2019-06-08T23:34:04.809Z,9.10
2019-06-08T23:36:50.769Z,9.07
2019-06-08T23:39:09.448Z,7.53
2019-06-08T23:41:41.102Z,6.37
2019-06-08T23:44:12.832Z,6.80
2019-06-08T23:46:44.568Z,7.97
2019-06-08T23:49:18.647Z,9.77
2019-06-08T23:51:49.635Z,8.30
2019-06-08T23:54:21.372Z,8.27
2019-06-08T23:56:53.113Z,8.47
2019-06-08T23:59:24.947Z,9.50
